Airfield :
LOGIN :

Register | Disclaimer

   EN    FR    IT 

 










Legend :    VFR   Marginal VFR   IFR   Intensive IFR   Very Intensive IFR
Visi :
Ceiling :
>= 8 km
>= 3000ft
5 to 8 km
1000 to 3000 ft
1500m to 5 km
500 to 1000 ft
800 to 1500m
200 to 500 ft
< 800m
< 200 ft
Symbols :   Thunderstorms  Fog  Heavy snow  Heavy precipitations  Wind > 20 kt
SIGMETs :     Misc.  Thunderstorms  Icing  Turbulence  Mountain Waves  Volcanic Ashes







- Airport Elevation : 171 ft
- IATA code : EGC
- Download approach charts


LFBE - Bergerac

CURRENT METAR :
  • 262300Z AUTO 00000KT CAVOK 01/00 Q1018

EXPIRED METARs :
  • 262230Z AUTO 04002KT CAVOK 00/M00 Q1018
  • 262200Z AUTO 00000KT 8000 NSC 01/01 Q1017
  • 262130Z AUTO 20001KT CAVOK 01/00 Q1017
  • 262100Z AUTO 00000KT CAVOK 02/01 Q1017
  • 262030Z AUTO 00000KT CAVOK 03/02 Q1017

TAF TAF LFBE
Valid from the 26 at 12:00 until the 27 at 12:00 UTC


261100Z 2612/2712 33012KT 9999 BKN030 OVC120
PROB40 2612/2617 4500 -SHRA BKN030TCU
BECMG 2620/2622 32005KT CAVOK
PROB40
TEMPO 2710/2712 -SHRA BKN050TCU
No reported NOTAMs for that airfield.
1 SIGMET reported for the Bordeaux FIR (LFBB) :
 
Severe turbulence
LFBB SIGMET 2 VALID 262300/270300 LFPW
LFBB BORDEAUX FIR/UIR SEV TURB FCST WI N4530 E00300 - N4400 W00100 - N4645 E00245 FL140/230 STNR NC=



MET'MAP, your aeronautical weather chart ! - Copyright ORBIFLY December 2007 - Disclaimer

ORBIFLY MET'MAP TEAM :

Programming & Development : Alexandra Zaïnal
Concept & Development : Baudouin d'Aumeries
Co-Development & Prog : Marc-Olivier Méhu
Technical & hardware support : Manuel Goepfert

Contact : metmap@orbifly.com




SOURCES & CREDITS :

   NOAA